createdAt,value
2023-01-04T00:02:36.011Z,102191.56
2023-01-04T00:07:33.345Z,102159.19
2023-01-04T00:12:29.913Z,102201.75
2023-01-04T00:17:26.450Z,102215.63
2023-01-04T00:22:23.097Z,102212.31
2023-01-04T00:27:20.284Z,102217.53
2023-01-04T00:32:17.093Z,102202.75
2023-01-04T00:37:13.832Z,102203.63
2023-01-04T00:42:10.487Z,102216.69
2023-01-04T00:47:07.939Z,102210.56
2023-01-04T00:52:04.710Z,102218.47
2023-01-04T00:57:01.441Z,102219.63
2023-01-04T01:01:58.530Z,102210.66
2023-01-04T01:06:56.221Z,102199.38
2023-01-04T01:11:53.448Z,102204.19
2023-01-04T01:16:55.869Z,102201.66
2023-01-04T01:21:53.720Z,102183.16
2023-01-04T01:26:51.099Z,102202.31
2023-01-04T01:31:47.844Z,102209.19
2023-01-04T01:36:44.665Z,102222.19
2023-01-04T01:41:41.321Z,102229.06
2023-01-04T01:46:43.287Z,102238.78
2023-01-04T01:51:41.502Z,102233.56
2023-01-04T01:56:39.512Z,102244.09
2023-01-04T02:01:36.344Z,102242.22
2023-01-04T02:06:35.594Z,102221.38
2023-01-04T02:11:33.259Z,102220.50
2023-01-04T02:16:39.874Z,102218.78
2023-01-04T02:21:47.978Z,102224.81
2023-01-04T02:27:05.148Z,102224.75
2023-01-04T02:32:05.706Z,102233.41
2023-01-04T02:37:08.250Z,102225.41
2023-01-04T02:42:07.971Z,102219.44
2023-01-04T02:47:06.780Z,102230.81
2023-01-04T02:52:03.488Z,102234.31
2023-01-04T02:57:08.746Z,102234.28
2023-01-04T03:02:29.852Z,102231.63
2023-01-04T03:07:31.597Z,102220.22
2023-01-04T03:12:33.071Z,102207.28
2023-01-04T03:17:33.812Z,102196.03
2023-01-04T03:22:52.637Z,102210.00
2023-01-04T03:28:08.699Z,102238.78
2023-01-04T03:33:40.707Z,102229.16
2023-01-04T03:38:58.271Z,102232.59
2023-01-04T03:44:19.356Z,102235.25
2023-01-04T03:49:20.563Z,102222.16
2023-01-04T03:54:19.702Z,102211.69
2023-01-04T03:59:16.386Z,102210.75
2023-01-04T04:04:31.308Z,102228.06
2023-01-04T04:09:28.582Z,102239.50
2023-01-04T04:14:25.229Z,102238.97
2023-01-04T04:19:21.813Z,102237.25
2023-01-04T04:24:19.672Z,102251.13
2023-01-04T04:29:17.654Z,102247.59
2023-01-04T04:34:14.249Z,102256.31
2023-01-04T04:39:10.827Z,102244.97
2023-01-04T04:44:07.934Z,102234.75
2023-01-04T04:49:05.745Z,102245.94
2023-01-04T04:54:02.725Z,102258.19
2023-01-04T04:58:59.424Z,102261.78
2023-01-04T05:03:58.428Z,102262.63
2023-01-04T05:08:55.756Z,102278.22
2023-01-04T05:13:52.347Z,102275.59
2023-01-04T05:18:49.016Z,102277.25
2023-01-04T05:23:45.581Z,102284.16
2023-01-04T05:28:45.960Z,102287.91
2023-01-04T05:34:02.153Z,102270.44
2023-01-04T05:38:58.740Z,102284.38
2023-01-04T05:43:56.160Z,102287.00
2023-01-04T05:48:52.614Z,102300.06
2023-01-04T05:53:49.419Z,102295.66
2023-01-04T05:58:46.404Z,102291.34
2023-01-04T06:03:43.841Z,102293.06
2023-01-04T06:08:40.578Z,102278.22
2023-01-04T06:13:37.292Z,102274.78
2023-01-04T06:18:33.783Z,102284.41
2023-01-04T06:23:31.000Z,102288.78
2023-01-04T06:28:29.002Z,102270.47
2023-01-04T06:33:25.571Z,102293.13
2023-01-04T06:38:22.323Z,102300.94
2023-01-04T06:43:22.204Z,102314.88
2023-01-04T06:48:18.841Z,102338.38
2023-01-04T06:53:15.480Z,102337.53
2023-01-04T06:58:13.428Z,102345.31
2023-01-04T07:03:15.981Z,102336.66
2023-01-04T07:08:17.130Z,102351.44
2023-01-04T07:13:14.315Z,102356.63
2023-01-04T07:18:15.417Z,102369.81
2023-01-04T07:23:16.313Z,102374.19
2023-01-04T07:28:36.976Z,102361.97
2023-01-04T07:33:42.483Z,102364.53
2023-01-04T07:38:53.423Z,102359.34
2023-01-04T07:43:53.730Z,102369.75
2023-01-04T07:48:57.028Z,102352.38
2023-01-04T07:54:30.398Z,102337.56
2023-01-04T07:59:41.087Z,102370.69
2023-01-04T08:05:04.137Z,102387.25
2023-01-04T08:10:02.862Z,102388.13
2023-01-04T08:15:03.351Z,102390.56
2023-01-04T08:20:07.649Z,102387.22
2023-01-04T08:25:09.322Z,102407.25
2023-01-04T08:30:09.939Z,102413.28
2023-01-04T08:35:08.798Z,102417.75
2023-01-04T08:40:08.195Z,102410.81
2023-01-04T08:45:10.711Z,102411.66
2023-01-04T08:50:23.424Z,102419.53
2023-01-04T08:55:23.691Z,102415.19
2023-01-04T09:00:24.924Z,102412.56
2023-01-04T09:05:23.275Z,102405.56
2023-01-04T09:10:23.455Z,102401.19
2023-01-04T09:15:22.641Z,102385.44
2023-01-04T09:20:20.746Z,102385.44
2023-01-04T09:25:17.427Z,102382.75
2023-01-04T09:30:14.898Z,102380.06
2023-01-04T09:35:11.691Z,102375.66
2023-01-04T09:40:10.835Z,102369.56
2023-01-04T09:45:24.663Z,102367.75
2023-01-04T09:50:24.299Z,102365.22
2023-01-04T09:55:40.989Z,102374.00
2023-01-04T10:00:44.057Z,102376.75
2023-01-04T10:05:41.794Z,102385.41
2023-01-04T10:10:48.233Z,102377.41
2023-01-04T10:15:51.360Z,102372.06
2023-01-04T10:21:32.760Z,102377.31
2023-01-04T10:26:30.800Z,102379.78
2023-01-04T10:31:39.962Z,102388.59
2023-01-04T10:36:40.535Z,102353.66
2023-01-04T10:41:40.419Z,102379.75
2023-01-04T10:46:40.971Z,102377.22
2023-01-04T10:51:41.088Z,102385.16
2023-01-04T10:56:41.652Z,102378.28
2023-01-04T11:01:43.526Z,102366.03
2023-01-04T11:06:47.268Z,102391.34
2023-01-04T11:11:46.132Z,102401.00
2023-01-04T11:16:45.277Z,102400.22
2023-01-04T11:21:49.493Z,102394.03
2023-01-04T11:26:48.817Z,102390.63
2023-01-04T11:31:54.305Z,102398.53
2023-01-04T11:36:53.174Z,102391.44
2023-01-04T11:42:02.915Z,102387.97
2023-01-04T11:47:11.703Z,102405.56
2023-01-04T11:52:29.093Z,102402.06
2023-01-04T11:57:26.834Z,102388.81
2023-01-04T12:02:58.690Z,102378.41
2023-01-04T12:07:42.126Z,102375.81
2023-01-04T12:12:39.815Z,102388.91
2023-01-04T12:17:57.599Z,102383.72
2023-01-04T12:22:54.153Z,102385.47
2023-01-04T12:27:51.682Z,102388.06
2023-01-04T12:32:48.390Z,102385.44
2023-01-04T12:37:47.860Z,102389.72
2023-01-04T12:43:11.339Z,102384.63
2023-01-04T12:48:41.940Z,102388.03
2023-01-04T12:53:51.546Z,102388.09
2023-01-04T12:59:28.909Z,102393.34
2023-01-04T13:04:39.710Z,102377.63
2023-01-04T13:09:46.410Z,102376.78
2023-01-04T13:14:48.066Z,102382.91
2023-01-04T13:19:45.775Z,102375.94
2023-01-04T13:24:43.580Z,102371.56
2023-01-04T13:29:40.496Z,102381.16
2023-01-04T13:34:38.360Z,102375.91
2023-01-04T13:39:40.894Z,102383.75
2023-01-04T13:45:19.702Z,102392.47
2023-01-04T13:50:25.555Z,102380.28
2023-01-04T13:55:26.868Z,102391.59
2023-01-04T14:00:24.332Z,102384.66
2023-01-04T14:05:20.948Z,102393.34
2023-01-04T14:10:18.689Z,102390.72
2023-01-04T14:15:20.212Z,102401.22
2023-01-04T14:20:34.004Z,102407.31
2023-01-04T14:25:39.941Z,102410.81
2023-01-04T14:30:37.205Z,102394.25
2023-01-04T14:35:34.617Z,102382.03
2023-01-04T14:40:34.717Z,102389.84
2023-01-04T14:45:31.308Z,102397.72
2023-01-04T14:50:28.732Z,102399.47
2023-01-04T14:55:25.351Z,102396.84
2023-01-04T15:00:21.927Z,102396.84
2023-01-04T15:05:19.478Z,102394.22
2023-01-04T15:10:20.945Z,102386.34
2023-01-04T15:15:18.012Z,102389.00
2023-01-04T15:20:14.713Z,102388.97
2023-01-04T15:25:11.664Z,102399.41
2023-01-04T15:30:09.982Z,102410.81
2023-01-04T15:35:06.921Z,102423.88
2023-01-04T15:40:05.357Z,102421.25
2023-01-04T15:45:02.341Z,102423.00
2023-01-04T15:50:00.186Z,102413.41
2023-01-04T15:54:58.360Z,102412.56
2023-01-04T15:59:54.911Z,102416.91
2023-01-04T16:04:51.566Z,102428.22
2023-01-04T16:09:48.858Z,102428.25
2023-01-04T16:14:45.708Z,102434.34
2023-01-04T16:19:42.336Z,102444.81
2023-01-04T16:25:09.930Z,102415.13
2023-01-04T16:29:56.144Z,102429.97
2023-01-04T16:34:55.063Z,102436.03
2023-01-04T16:40:08.624Z,102431.69
2023-01-04T16:45:07.140Z,102422.06
2023-01-04T16:50:04.083Z,102400.19
2023-01-04T16:55:00.686Z,102396.66
2023-01-04T16:59:57.321Z,102393.16
2023-01-04T17:04:58.915Z,102401.84
2023-01-04T17:09:55.541Z,102409.72
2023-01-04T17:15:14.911Z,102412.34
2023-01-04T17:20:09.812Z,102393.31
2023-01-04T17:25:07.026Z,102408.13
2023-01-04T17:30:04.035Z,102424.78
2023-01-04T17:35:00.690Z,102414.28
2023-01-04T17:39:57.861Z,102404.66
2023-01-04T17:44:54.554Z,102395.84
2023-01-04T17:49:51.147Z,102395.81
2023-01-04T17:54:47.695Z,102388.84
2023-01-04T17:59:44.942Z,102399.25
2023-01-04T18:04:41.530Z,102402.69
2023-01-04T18:09:38.326Z,102408.78
2023-01-04T18:14:34.981Z,102400.16
2023-01-04T18:19:32.226Z,102399.31
2023-01-04T18:24:37.902Z,102396.69
2023-01-04T18:29:35.464Z,102404.50
2023-01-04T18:34:32.759Z,102400.13
2023-01-04T18:39:29.374Z,102387.03
2023-01-04T18:44:35.829Z,102384.34
2023-01-04T18:49:33.330Z,102381.75
2023-01-04T18:54:34.884Z,102383.47
2023-01-04T18:59:31.972Z,102385.19
2023-01-04T19:04:29.190Z,102391.31
2023-01-04T19:09:29.943Z,102374.78
2023-01-04T19:14:26.539Z,102389.66
2023-01-04T19:19:23.130Z,102394.00
2023-01-04T19:24:19.727Z,102394.03
2023-01-04T19:29:18.950Z,102394.06
2023-01-04T19:34:18.161Z,102397.47
2023-01-04T19:39:17.498Z,102379.97
2023-01-04T19:44:14.277Z,102373.03
2023-01-04T19:49:15.253Z,102373.06
2023-01-04T19:54:12.832Z,102372.16
2023-01-04T19:59:09.420Z,102365.19
2023-01-04T20:04:06.038Z,102348.69
2023-01-04T20:09:03.526Z,102358.28
2023-01-04T20:14:09.134Z,102364.56
2023-01-04T20:19:07.220Z,102361.03
2023-01-04T20:24:04.813Z,102356.72
2023-01-04T20:29:03.557Z,102348.03
2023-01-04T20:34:01.416Z,102335.84
2023-01-04T20:38:58.905Z,102336.63
2023-01-04T20:43:56.143Z,102331.47
2023-01-04T20:48:53.140Z,102322.66
2023-01-04T20:53:50.078Z,102320.03
2023-01-04T20:58:47.449Z,102321.81
2023-01-04T21:03:45.053Z,102325.31
2023-01-04T21:08:41.993Z,102313.16
2023-01-04T21:13:38.698Z,102307.94
2023-01-04T21:18:35.493Z,102298.34
2023-01-04T21:23:32.754Z,102294.88
2023-01-04T21:28:29.271Z,102292.28
2023-01-04T21:33:25.865Z,102283.50
2023-01-04T21:38:22.468Z,102278.25
2023-01-04T21:43:19.628Z,102278.16
2023-01-04T21:48:16.110Z,102270.31
2023-01-04T21:53:12.906Z,102265.03
2023-01-04T21:58:09.656Z,102260.81
2023-01-04T22:03:08.131Z,102270.34
2023-01-04T22:08:05.158Z,102265.09
2023-01-04T22:13:01.671Z,102253.81
2023-01-04T22:17:58.253Z,102245.16
2023-01-04T22:22:55.416Z,102250.38
2023-01-04T22:27:52.014Z,102242.47
2023-01-04T22:32:48.873Z,102230.25
2023-01-04T22:37:45.451Z,102232.88
2023-01-04T22:42:42.723Z,102222.47
2023-01-04T22:47:39.315Z,102212.94
2023-01-04T22:52:35.852Z,102211.16
2023-01-04T22:57:32.487Z,102205.03
2023-01-04T23:02:29.734Z,102186.78
2023-01-04T23:07:26.274Z,102178.09
2023-01-04T23:12:22.804Z,102170.28
2023-01-04T23:17:19.337Z,102183.31
2023-01-04T23:22:16.615Z,102176.34
2023-01-04T23:27:13.269Z,102171.97
2023-01-04T23:32:09.958Z,102145.84
2023-01-04T23:37:06.799Z,102159.81
2023-01-04T23:42:04.142Z,102146.75
2023-01-04T23:47:01.739Z,102145.03
2023-01-04T23:51:58.638Z,102146.72
2023-01-04T23:56:55.482Z,102138.91
